sensor_id;sensor_type;location;lat;lon;timestamp;P1;durP1;ratioP1;P2;durP2;ratioP2
83562;SDS011;73535;52.500;13.482;2024-03-02T00:00:00;15.27;;;11.10;;
83562;SDS011;73535;52.500;13.482;2024-03-02T00:02:33;14.43;;;11.40;;
83562;SDS011;73535;52.500;13.482;2024-03-02T00:04:59;15.25;;;11.05;;
83562;SDS011;73535;52.500;13.482;2024-03-02T00:07:24;13.82;;;11.07;;
83562;SDS011;73535;52.500;13.482;2024-03-02T00:09:52;13.50;;;10.95;;
83562;SDS011;73535;52.500;13.482;2024-03-02T00:12:18;14.18;;;10.75;;
83562;SDS011;73535;52.500;13.482;2024-03-02T00:14:45;13.30;;;11.18;;
83562;SDS011;73535;52.500;13.482;2024-03-02T00:17:14;15.00;;;11.35;;
83562;SDS011;73535;52.500;13.482;2024-03-02T00:19:49;14.27;;;10.30;;
83562;SDS011;73535;52.500;13.482;2024-03-02T00:22:14;13.55;;;10.63;;
83562;SDS011;73535;52.500;13.482;2024-03-02T00:24:39;12.95;;;10.40;;
83562;SDS011;73535;52.500;13.482;2024-03-02T00:27:05;14.90;;;10.95;;
83562;SDS011;73535;52.500;13.482;2024-03-02T00:29:32;13.90;;;10.45;;
83562;SDS011;73535;52.500;13.482;2024-03-02T00:31:57;12.63;;;10.43;;
83562;SDS011;73535;52.500;13.482;2024-03-02T00:34:23;13.13;;;10.35;;
83562;SDS011;73535;52.500;13.482;2024-03-02T00:36:48;12.98;;;10.80;;
83562;SDS011;73535;52.500;13.482;2024-03-02T00:39:17;13.85;;;10.65;;
83562;SDS011;73535;52.500;13.482;2024-03-02T00:41:42;14.23;;;11.13;;
83562;SDS011;73535;52.500;13.482;2024-03-02T00:44:09;13.60;;;10.88;;
83562;SDS011;73535;52.500;13.482;2024-03-02T00:46:37;13.70;;;11.40;;
83562;SDS011;73535;52.500;13.482;2024-03-02T00:49:04;13.43;;;11.07;;
83562;SDS011;73535;52.500;13.482;2024-03-02T00:51:31;12.93;;;11.23;;
83562;SDS011;73535;52.500;13.482;2024-03-02T00:53:59;13.73;;;10.57;;
83562;SDS011;73535;52.500;13.482;2024-03-02T00:56:28;12.65;;;10.55;;
83562;SDS011;73535;52.500;13.482;2024-03-02T00:58:54;14.00;;;11.13;;
83562;SDS011;73535;52.500;13.482;2024-03-02T01:03:45;12.83;;;11.20;;
83562;SDS011;73535;52.500;13.482;2024-03-02T01:06:10;14.15;;;11.45;;
83562;SDS011;73535;52.500;13.482;2024-03-02T01:11:02;13.35;;;10.98;;
83562;SDS011;73535;52.500;13.482;2024-03-02T01:13:27;14.85;;;11.43;;
83562;SDS011;73535;52.500;13.482;2024-03-02T01:15:52;15.93;;;11.40;;
83562;SDS011;73535;52.500;13.482;2024-03-02T01:18:18;13.20;;;10.98;;
83562;SDS011;73535;52.500;13.482;2024-03-02T01:20:43;14.25;;;11.90;;
83562;SDS011;73535;52.500;13.482;2024-03-02T01:25:34;13.88;;;10.48;;
83562;SDS011;73535;52.500;13.482;2024-03-02T01:28:00;13.32;;;11.68;;
83562;SDS011;73535;52.500;13.482;2024-03-02T01:32:51;14.20;;;10.97;;
83562;SDS011;73535;52.500;13.482;2024-03-02T01:37:41;14.07;;;11.30;;
83562;SDS011;73535;52.500;13.482;2024-03-02T01:40:07;13.15;;;10.95;;
83562;SDS011;73535;52.500;13.482;2024-03-02T01:42:34;15.50;;;11.15;;
83562;SDS011;73535;52.500;13.482;2024-03-02T01:45:05;16.05;;;11.27;;
83562;SDS011;73535;52.500;13.482;2024-03-02T01:47:32;13.10;;;10.95;;
83562;SDS011;73535;52.500;13.482;2024-03-02T01:49:57;14.30;;;10.25;;
83562;SDS011;73535;52.500;13.482;2024-03-02T01:52:23;14.18;;;11.13;;
83562;SDS011;73535;52.500;13.482;2024-03-02T01:54:48;14.43;;;11.60;;
83562;SDS011;73535;52.500;13.482;2024-03-02T01:57:13;12.57;;;10.82;;
83562;SDS011;73535;52.500;13.482;2024-03-02T01:59:39;12.93;;;10.98;;
83562;SDS011;73535;52.500;13.482;2024-03-02T02:02:04;13.95;;;11.35;;
83562;SDS011;73535;52.500;13.482;2024-03-02T02:04:29;14.88;;;11.90;;
83562;SDS011;73535;52.500;13.482;2024-03-02T02:09:21;13.43;;;11.07;;
83562;SDS011;73535;52.500;13.482;2024-03-02T02:11:46;12.90;;;10.48;;
83562;SDS011;73535;52.500;13.482;2024-03-02T02:14:11;15.32;;;11.00;;
83562;SDS011;73535;52.500;13.482;2024-03-02T02:16:36;13.55;;;10.05;;
83562;SDS011;73535;52.500;13.482;2024-03-02T02:21:28;14.20;;;10.82;;
83562;SDS011;73535;52.500;13.482;2024-03-02T02:23:53;13.10;;;10.68;;
83562;SDS011;73535;52.500;13.482;2024-03-02T02:26:18;13.32;;;10.68;;
83562;SDS011;73535;52.500;13.482;2024-03-02T02:28:43;12.60;;;10.95;;
83562;SDS011;73535;52.500;13.482;2024-03-02T02:31:12;12.48;;;10.25;;
83562;SDS011;73535;52.500;13.482;2024-03-02T02:33:39;14.75;;;11.80;;
83562;SDS011;73535;52.500;13.482;2024-03-02T02:36:04;13.18;;;11.40;;
83562;SDS011;73535;52.500;13.482;2024-03-02T02:38:30;12.30;;;10.98;;
83562;SDS011;73535;52.500;13.482;2024-03-02T02:40:57;13.68;;;11.45;;
83562;SDS011;73535;52.500;13.482;2024-03-02T02:43:22;13.75;;;11.23;;
83562;SDS011;73535;52.500;13.482;2024-03-02T02:45:47;14.27;;;11.10;;
83562;SDS011;73535;52.500;13.482;2024-03-02T02:48:12;13.57;;;11.35;;
83562;SDS011;73535;52.500;13.482;2024-03-02T02:50:37;14.20;;;10.57;;
83562;SDS011;73535;52.500;13.482;2024-03-02T02:53:03;13.15;;;10.80;;
83562;SDS011;73535;52.500;13.482;2024-03-02T02:55:28;14.18;;;11.75;;
83562;SDS011;73535;52.500;13.482;2024-03-02T02:57:53;13.50;;;10.88;;
83562;SDS011;73535;52.500;13.482;2024-03-02T03:00:19;12.65;;;10.07;;
83562;SDS011;73535;52.500;13.482;2024-03-02T03:02:45;12.70;;;10.23;;
83562;SDS011;73535;52.500;13.482;2024-03-02T03:05:13;14.65;;;10.60;;
83562;SDS011;73535;52.500;13.482;2024-03-02T03:10:04;14.40;;;11.02;;
83562;SDS011;73535;52.500;13.482;2024-03-02T03:12:31;14.48;;;11.98;;
83562;SDS011;73535;52.500;13.482;2024-03-02T03:14:57;12.65;;;10.63;;
83562;SDS011;73535;52.500;13.482;2024-03-02T03:17:22;13.30;;;11.15;;
83562;SDS011;73535;52.500;13.482;2024-03-02T03:19:48;13.98;;;11.48;;
83562;SDS011;73535;52.500;13.482;2024-03-02T03:22:13;13.52;;;11.35;;
83562;SDS011;73535;52.500;13.482;2024-03-02T03:24:39;14.05;;;11.43;;
83562;SDS011;73535;52.500;13.482;2024-03-02T03:27:04;11.85;;;10.23;;
83562;SDS011;73535;52.500;13.482;2024-03-02T03:29:29;15.32;;;11.27;;
83562;SDS011;73535;52.500;13.482;2024-03-02T03:31:54;14.52;;;11.35;;
83562;SDS011;73535;52.500;13.482;2024-03-02T03:34:20;12.82;;;10.85;;
83562;SDS011;73535;52.500;13.482;2024-03-02T03:36:45;11.75;;;10.38;;
83562;SDS011;73535;52.500;13.482;2024-03-02T03:39:10;11.90;;;10.30;;
83562;SDS011;73535;52.500;13.482;2024-03-02T03:41:35;12.32;;;10.15;;
83562;SDS011;73535;52.500;13.482;2024-03-02T03:44:01;13.57;;;10.70;;
83562;SDS011;73535;52.500;13.482;2024-03-02T03:46:26;14.07;;;10.90;;
83562;SDS011;73535;52.500;13.482;2024-03-02T03:48:51;12.88;;;10.40;;
83562;SDS011;73535;52.500;13.482;2024-03-02T03:51:16;13.35;;;11.02;;
83562;SDS011;73535;52.500;13.482;2024-03-02T03:53:41;11.75;;;10.55;;
83562;SDS011;73535;52.500;13.482;2024-03-02T03:56:07;13.85;;;11.10;;
83562;SDS011;73535;52.500;13.482;2024-03-02T03:58:32;12.82;;;11.43;;
83562;SDS011;73535;52.500;13.482;2024-03-02T04:00:57;13.52;;;10.82;;
83562;SDS011;73535;52.500;13.482;2024-03-02T04:03:22;12.63;;;10.75;;
83562;SDS011;73535;52.500;13.482;2024-03-02T04:05:48;12.75;;;11.15;;
83562;SDS011;73535;52.500;13.482;2024-03-02T04:08:13;13.40;;;11.35;;
83562;SDS011;73535;52.500;13.482;2024-03-02T04:10:38;13.55;;;10.10;;
83562;SDS011;73535;52.500;13.482;2024-03-02T04:13:05;12.85;;;10.13;;
83562;SDS011;73535;52.500;13.482;2024-03-02T04:15:30;13.48;;;10.38;;
83562;SDS011;73535;52.500;13.482;2024-03-02T04:17:55;13.05;;;10.27;;
83562;SDS011;73535;52.500;13.482;2024-03-02T04:20:20;13.07;;;11.02;;
83562;SDS011;73535;52.500;13.482;2024-03-02T04:22:46;13.45;;;10.57;;
83562;SDS011;73535;52.500;13.482;2024-03-02T04:25:11;14.35;;;10.25;;
83562;SDS011;73535;52.500;13.482;2024-03-02T04:27:36;11.93;;;10.48;;
83562;SDS011;73535;52.500;13.482;2024-03-02T04:32:28;12.32;;;10.63;;
83562;SDS011;73535;52.500;13.482;2024-03-02T04:34:53;13.02;;;10.75;;
83562;SDS011;73535;52.500;13.482;2024-03-02T04:37:19;14.50;;;11.20;;
83562;SDS011;73535;52.500;13.482;2024-03-02T04:39:44;13.82;;;11.02;;
83562;SDS011;73535;52.500;13.482;2024-03-02T04:42:10;11.77;;;9.55;;
83562;SDS011;73535;52.500;13.482;2024-03-02T04:44:35;11.55;;;9.95;;
83562;SDS011;73535;52.500;13.482;2024-03-02T04:47:00;12.43;;;10.30;;
83562;SDS011;73535;52.500;13.482;2024-03-02T04:49:25;13.57;;;11.00;;
83562;SDS011;73535;52.500;13.482;2024-03-02T04:51:51;11.60;;;10.13;;
83562;SDS011;73535;52.500;13.482;2024-03-02T04:54:16;12.70;;;10.93;;
83562;SDS011;73535;52.500;13.482;2024-03-02T04:56:41;12.27;;;9.93;;
83562;SDS011;73535;52.500;13.482;2024-03-02T04:59:09;12.13;;;9.88;;
83562;SDS011;73535;52.500;13.482;2024-03-02T05:01:35;12.15;;;10.80;;
83562;SDS011;73535;52.500;13.482;2024-03-02T05:06:25;12.80;;;10.43;;
83562;SDS011;73535;52.500;13.482;2024-03-02T05:11:16;12.53;;;10.53;;
83562;SDS011;73535;52.500;13.482;2024-03-02T05:14:15;11.85;;;10.02;;
83562;SDS011;73535;52.500;13.482;2024-03-02T05:16:40;11.55;;;10.35;;
83562;SDS011;73535;52.500;13.482;2024-03-02T05:19:06;11.13;;;9.73;;
83562;SDS011;73535;52.500;13.482;2024-03-02T05:21:32;13.82;;;10.40;;
83562;SDS011;73535;52.500;13.482;2024-03-02T05:23:58;12.73;;;10.80;;
83562;SDS011;73535;52.500;13.482;2024-03-02T05:26:24;11.65;;;9.82;;
83562;SDS011;73535;52.500;13.482;2024-03-02T05:28:49;12.82;;;10.02;;
83562;SDS011;73535;52.500;13.482;2024-03-02T05:31:15;13.55;;;10.77;;
83562;SDS011;73535;52.500;13.482;2024-03-02T05:33:40;11.10;;;10.00;;
83562;SDS011;73535;52.500;13.482;2024-03-02T05:36:05;10.55;;;9.27;;
83562;SDS011;73535;52.500;13.482;2024-03-02T05:38:31;13.80;;;10.77;;
83562;SDS011;73535;52.500;13.482;2024-03-02T05:40:57;11.38;;;9.07;;
83562;SDS011;73535;52.500;13.482;2024-03-02T05:43:22;11.73;;;10.38;;
83562;SDS011;73535;52.500;13.482;2024-03-02T05:45:47;11.43;;;9.77;;
83562;SDS011;73535;52.500;13.482;2024-03-02T05:48:12;10.70;;;9.52;;
83562;SDS011;73535;52.500;13.482;2024-03-02T05:50:38;10.35;;;9.02;;
83562;SDS011;73535;52.500;13.482;2024-03-02T05:53:03;11.00;;;8.90;;
83562;SDS011;73535;52.500;13.482;2024-03-02T05:55:28;12.77;;;10.02;;
83562;SDS011;73535;52.500;13.482;2024-03-02T05:57:54;11.85;;;10.30;;
83562;SDS011;73535;52.500;13.482;2024-03-02T06:00:31;10.55;;;9.40;;
83562;SDS011;73535;52.500;13.482;2024-03-02T06:02:57;11.45;;;9.32;;
83562;SDS011;73535;52.500;13.482;2024-03-02T06:05:22;11.50;;;9.93;;
83562;SDS011;73535;52.500;13.482;2024-03-02T06:07:47;12.65;;;9.75;;
83562;SDS011;73535;52.500;13.482;2024-03-02T06:10:12;11.13;;;9.88;;
83562;SDS011;73535;52.500;13.482;2024-03-02T06:12:38;11.73;;;10.50;;
83562;SDS011;73535;52.500;13.482;2024-03-02T06:15:03;11.02;;;9.40;;
83562;SDS011;73535;52.500;13.482;2024-03-02T06:17:29;11.80;;;9.32;;
83562;SDS011;73535;52.500;13.482;2024-03-02T06:19:54;13.55;;;9.73;;
83562;SDS011;73535;52.500;13.482;2024-03-02T06:22:19;12.27;;;9.85;;
83562;SDS011;73535;52.500;13.482;2024-03-02T06:24:49;10.65;;;9.55;;
83562;SDS011;73535;52.500;13.482;2024-03-02T06:27:15;10.98;;;9.07;;
83562;SDS011;73535;52.500;13.482;2024-03-02T06:29:40;11.15;;;9.55;;
83562;SDS011;73535;52.500;13.482;2024-03-02T06:32:05;11.07;;;9.48;;
83562;SDS011;73535;52.500;13.482;2024-03-02T06:34:30;13.23;;;9.57;;
83562;SDS011;73535;52.500;13.482;2024-03-02T06:36:56;12.00;;;9.90;;
83562;SDS011;73535;52.500;13.482;2024-03-02T06:39:21;11.82;;;9.77;;
83562;SDS011;73535;52.500;13.482;2024-03-02T06:41:46;12.05;;;10.73;;
83562;SDS011;73535;52.500;13.482;2024-03-02T06:44:14;11.93;;;9.45;;
83562;SDS011;73535;52.500;13.482;2024-03-02T06:46:40;13.15;;;9.73;;
83562;SDS011;73535;52.500;13.482;2024-03-02T06:49:05;11.48;;;9.63;;
83562;SDS011;73535;52.500;13.482;2024-03-02T06:51:30;13.40;;;10.57;;
83562;SDS011;73535;52.500;13.482;2024-03-02T06:53:55;13.07;;;10.00;;
83562;SDS011;73535;52.500;13.482;2024-03-02T06:56:21;11.95;;;9.77;;
83562;SDS011;73535;52.500;13.482;2024-03-02T06:58:46;13.73;;;10.45;;
83562;SDS011;73535;52.500;13.482;2024-03-02T07:01:12;16.80;;;11.40;;
83562;SDS011;73535;52.500;13.482;2024-03-02T07:03:37;16.67;;;11.30;;
83562;SDS011;73535;52.500;13.482;2024-03-02T07:06:04;13.48;;;9.75;;
83562;SDS011;73535;52.500;13.482;2024-03-02T07:08:29;17.98;;;11.82;;
83562;SDS011;73535;52.500;13.482;2024-03-02T07:10:54;17.67;;;11.27;;
83562;SDS011;73535;52.500;13.482;2024-03-02T07:13:20;19.02;;;12.23;;
83562;SDS011;73535;52.500;13.482;2024-03-02T07:18:39;16.70;;;11.50;;
83562;SDS011;73535;52.500;13.482;2024-03-02T07:21:10;16.33;;;11.18;;
83562;SDS011;73535;52.500;13.482;2024-03-02T07:23:35;16.60;;;10.80;;
83562;SDS011;73535;52.500;13.482;2024-03-02T07:26:01;16.77;;;11.90;;
83562;SDS011;73535;52.500;13.482;2024-03-02T07:28:27;15.07;;;11.70;;
83562;SDS011;73535;52.500;13.482;2024-03-02T07:31:02;15.73;;;10.98;;
83562;SDS011;73535;52.500;13.482;2024-03-02T07:33:29;14.65;;;11.10;;
83562;SDS011;73535;52.500;13.482;2024-03-02T07:35:54;14.52;;;11.00;;
83562;SDS011;73535;52.500;13.482;2024-03-02T07:38:20;14.13;;;10.80;;
83562;SDS011;73535;52.500;13.482;2024-03-02T07:40:46;15.05;;;10.48;;
83562;SDS011;73535;52.500;13.482;2024-03-02T07:43:12;14.15;;;11.40;;
83562;SDS011;73535;52.500;13.482;2024-03-02T07:45:37;17.70;;;11.20;;
83562;SDS011;73535;52.500;13.482;2024-03-02T07:48:02;16.77;;;11.52;;
83562;SDS011;73535;52.500;13.482;2024-03-02T07:50:29;15.90;;;11.38;;
83562;SDS011;73535;52.500;13.482;2024-03-02T07:52:55;15.43;;;11.10;;
83562;SDS011;73535;52.500;13.482;2024-03-02T07:55:20;15.60;;;10.90;;
83562;SDS011;73535;52.500;13.482;2024-03-02T07:57:46;13.75;;;10.73;;
83562;SDS011;73535;52.500;13.482;2024-03-02T08:00:11;17.38;;;11.60;;
83562;SDS011;73535;52.500;13.482;2024-03-02T08:02:36;16.77;;;12.00;;
83562;SDS011;73535;52.500;13.482;2024-03-02T08:05:02;16.23;;;10.55;;
83562;SDS011;73535;52.500;13.482;2024-03-02T08:07:27;15.40;;;11.40;;
83562;SDS011;73535;52.500;13.482;2024-03-02T08:09:53;15.90;;;10.80;;
83562;SDS011;73535;52.500;13.482;2024-03-02T08:12:18;16.27;;;11.13;;
83562;SDS011;73535;52.500;13.482;2024-03-02T08:14:44;16.00;;;11.07;;
83562;SDS011;73535;52.500;13.482;2024-03-02T08:17:10;12.07;;;9.80;;
83562;SDS011;73535;52.500;13.482;2024-03-02T08:19:36;16.02;;;11.10;;
83562;SDS011;73535;52.500;13.482;2024-03-02T08:24:27;12.70;;;10.37;;
83562;SDS011;73535;52.500;13.482;2024-03-02T08:26:52;13.27;;;10.15;;
83562;SDS011;73535;52.500;13.482;2024-03-02T08:29:17;14.77;;;11.00;;
83562;SDS011;73535;52.500;13.482;2024-03-02T08:34:08;16.47;;;10.90;;
83562;SDS011;73535;52.500;13.482;2024-03-02T08:36:34;15.57;;;11.25;;
83562;SDS011;73535;52.500;13.482;2024-03-02T08:38:59;13.35;;;10.48;;
83562;SDS011;73535;52.500;13.482;2024-03-02T08:41:24;13.23;;;10.60;;
83562;SDS011;73535;52.500;13.482;2024-03-02T08:43:49;13.32;;;10.52;;
83562;SDS011;73535;52.500;13.482;2024-03-02T08:46:15;14.73;;;10.13;;
83562;SDS011;73535;52.500;13.482;2024-03-02T08:48:40;14.13;;;10.27;;
83562;SDS011;73535;52.500;13.482;2024-03-02T08:51:05;16.33;;;11.32;;
83562;SDS011;73535;52.500;13.482;2024-03-02T08:53:32;14.88;;;10.50;;
83562;SDS011;73535;52.500;13.482;2024-03-02T08:55:58;16.60;;;10.73;;
83562;SDS011;73535;52.500;13.482;2024-03-02T08:58:23;14.38;;;10.73;;
83562;SDS011;73535;52.500;13.482;2024-03-02T09:03:13;14.67;;;10.00;;
83562;SDS011;73535;52.500;13.482;2024-03-02T09:05:39;14.07;;;11.25;;
83562;SDS011;73535;52.500;13.482;2024-03-02T09:08:05;15.52;;;10.82;;
83562;SDS011;73535;52.500;13.482;2024-03-02T09:10:30;17.27;;;11.18;;
83562;SDS011;73535;52.500;13.482;2024-03-02T09:15:20;13.30;;;10.53;;
83562;SDS011;73535;52.500;13.482;2024-03-02T09:17:46;13.20;;;10.35;;
83562;SDS011;73535;52.500;13.482;2024-03-02T09:20:11;15.73;;;11.40;;
83562;SDS011;73535;52.500;13.482;2024-03-02T09:22:36;14.23;;;10.52;;
83562;SDS011;73535;52.500;13.482;2024-03-02T09:25:02;16.10;;;11.48;;
83562;SDS011;73535;52.500;13.482;2024-03-02T09:29:52;14.00;;;10.40;;
83562;SDS011;73535;52.500;13.482;2024-03-02T09:34:43;15.13;;;10.17;;
83562;SDS011;73535;52.500;13.482;2024-03-02T09:39:33;13.77;;;9.50;;
83562;SDS011;73535;52.500;13.482;2024-03-02T09:44:25;16.05;;;10.48;;
83562;SDS011;73535;52.500;13.482;2024-03-02T09:46:51;12.82;;;10.32;;
83562;SDS011;73535;52.500;13.482;2024-03-02T09:49:16;11.18;;;8.65;;
83562;SDS011;73535;52.500;13.482;2024-03-02T09:54:13;13.82;;;9.80;;
83562;SDS011;73535;52.500;13.482;2024-03-02T09:56:40;13.75;;;10.30;;
83562;SDS011;73535;52.500;13.482;2024-03-02T09:59:05;12.82;;;9.85;;
83562;SDS011;73535;52.500;13.482;2024-03-02T10:01:31;14.13;;;10.50;;
83562;SDS011;73535;52.500;13.482;2024-03-02T10:03:58;12.82;;;10.15;;
83562;SDS011;73535;52.500;13.482;2024-03-02T10:06:25;12.65;;;10.15;;
83562;SDS011;73535;52.500;13.482;2024-03-02T10:08:51;12.10;;;9.13;;
83562;SDS011;73535;52.500;13.482;2024-03-02T10:11:27;13.23;;;9.20;;
83562;SDS011;73535;52.500;13.482;2024-03-02T10:14:03;12.23;;;9.90;;
83562;SDS011;73535;52.500;13.482;2024-03-02T10:16:40;11.80;;;9.15;;
83562;SDS011;73535;52.500;13.482;2024-03-02T10:19:16;13.15;;;9.15;;
83562;SDS011;73535;52.500;13.482;2024-03-02T10:21:42;12.40;;;9.88;;
83562;SDS011;73535;52.500;13.482;2024-03-02T10:24:07;13.48;;;8.88;;
83562;SDS011;73535;52.500;13.482;2024-03-02T10:28:58;11.03;;;8.77;;
83562;SDS011;73535;52.500;13.482;2024-03-02T10:31:24;10.68;;;8.63;;
83562;SDS011;73535;52.500;13.482;2024-03-02T10:33:52;11.73;;;8.77;;
83562;SDS011;73535;52.500;13.482;2024-03-02T10:36:19;10.52;;;8.52;;
83562;SDS011;73535;52.500;13.482;2024-03-02T10:38:44;10.45;;;9.27;;
83562;SDS011;73535;52.500;13.482;2024-03-02T10:41:11;13.20;;;9.18;;
83562;SDS011;73535;52.500;13.482;2024-03-02T10:43:37;11.18;;;8.68;;
83562;SDS011;73535;52.500;13.482;2024-03-02T10:48:27;11.13;;;9.07;;
83562;SDS011;73535;52.500;13.482;2024-03-02T10:53:18;11.57;;;8.70;;
83562;SDS011;73535;52.500;13.482;2024-03-02T10:58:09;12.27;;;8.95;;
83562;SDS011;73535;52.500;13.482;2024-03-02T11:00:37;11.73;;;8.98;;
83562;SDS011;73535;52.500;13.482;2024-03-02T11:03:07;10.05;;;8.15;;
83562;SDS011;73535;52.500;13.482;2024-03-02T11:05:36;10.85;;;8.30;;
83562;SDS011;73535;52.500;13.482;2024-03-02T11:08:06;11.85;;;9.20;;
83562;SDS011;73535;52.500;13.482;2024-03-02T11:10:50;10.32;;;8.48;;
83562;SDS011;73535;52.500;13.482;2024-03-02T11:13:17;10.10;;;7.78;;
83562;SDS011;73535;52.500;13.482;2024-03-02T11:15:49;12.18;;;8.68;;
83562;SDS011;73535;52.500;13.482;2024-03-02T11:18:18;9.13;;;8.10;;
83562;SDS011;73535;52.500;13.482;2024-03-02T11:20:44;11.13;;;8.32;;
83562;SDS011;73535;52.500;13.482;2024-03-02T11:23:09;10.48;;;7.88;;
83562;SDS011;73535;52.500;13.482;2024-03-02T11:28:04;9.38;;;8.23;;
83562;SDS011;73535;52.500;13.482;2024-03-02T11:33:00;9.27;;;7.50;;
83562;SDS011;73535;52.500;13.482;2024-03-02T11:35:26;10.15;;;8.45;;
83562;SDS011;73535;52.500;13.482;2024-03-02T11:37:51;10.95;;;8.02;;
83562;SDS011;73535;52.500;13.482;2024-03-02T11:40:23;9.07;;;7.72;;
83562;SDS011;73535;52.500;13.482;2024-03-02T11:42:50;10.25;;;7.38;;
83562;SDS011;73535;52.500;13.482;2024-03-02T11:45:24;9.20;;;7.65;;
83562;SDS011;73535;52.500;13.482;2024-03-02T11:47:51;9.52;;;7.55;;
83562;SDS011;73535;52.500;13.482;2024-03-02T11:50:28;11.13;;;7.95;;
83562;SDS011;73535;52.500;13.482;2024-03-02T11:52:54;9.38;;;7.57;;
83562;SDS011;73535;52.500;13.482;2024-03-02T11:55:21;10.20;;;8.25;;
83562;SDS011;73535;52.500;13.482;2024-03-02T11:57:46;9.43;;;7.80;;
83562;SDS011;73535;52.500;13.482;2024-03-02T12:02:43;8.95;;;7.40;;
83562;SDS011;73535;52.500;13.482;2024-03-02T12:05:12;9.45;;;7.78;;
83562;SDS011;73535;52.500;13.482;2024-03-02T12:07:38;9.80;;;7.40;;
83562;SDS011;73535;52.500;13.482;2024-03-02T12:10:03;8.93;;;7.28;;
83562;SDS011;73535;52.500;13.482;2024-03-02T12:12:30;9.85;;;7.78;;
83562;SDS011;73535;52.500;13.482;2024-03-02T12:14:55;9.13;;;7.85;;
83562;SDS011;73535;52.500;13.482;2024-03-02T12:17:21;8.70;;;7.80;;
83562;SDS011;73535;52.500;13.482;2024-03-02T12:19:47;8.43;;;6.85;;
83562;SDS011;73535;52.500;13.482;2024-03-02T12:22:13;8.43;;;7.20;;
83562;SDS011;73535;52.500;13.482;2024-03-02T12:27:04;9.55;;;7.88;;
83562;SDS011;73535;52.500;13.482;2024-03-02T12:29:32;9.32;;;7.60;;
83562;SDS011;73535;52.500;13.482;2024-03-02T12:34:24;7.85;;;5.75;;
83562;SDS011;73535;52.500;13.482;2024-03-02T12:39:17;7.65;;;6.85;;
83562;SDS011;73535;52.500;13.482;2024-03-02T12:41:43;9.07;;;7.25;;
83562;SDS011;73535;52.500;13.482;2024-03-02T12:46:34;7.65;;;6.55;;
83562;SDS011;73535;52.500;13.482;2024-03-02T12:49:05;9.93;;;6.70;;
83562;SDS011;73535;52.500;13.482;2024-03-02T12:51:33;8.63;;;7.22;;
83562;SDS011;73535;52.500;13.482;2024-03-02T12:54:01;7.65;;;6.55;;
83562;SDS011;73535;52.500;13.482;2024-03-02T12:56:26;8.40;;;6.22;;
83562;SDS011;73535;52.500;13.482;2024-03-02T13:01:20;7.05;;;6.35;;
83562;SDS011;73535;52.500;13.482;2024-03-02T13:03:48;8.38;;;6.68;;
83562;SDS011;73535;52.500;13.482;2024-03-02T13:06:14;8.40;;;6.85;;
83562;SDS011;73535;52.500;13.482;2024-03-02T13:08:41;7.53;;;6.75;;
83562;SDS011;73535;52.500;13.482;2024-03-02T13:11:07;7.43;;;6.22;;
83562;SDS011;73535;52.500;13.482;2024-03-02T13:15:57;7.47;;;6.28;;
83562;SDS011;73535;52.500;13.482;2024-03-02T13:20:48;9.30;;;6.07;;
83562;SDS011;73535;52.500;13.482;2024-03-02T13:23:13;7.72;;;5.90;;
83562;SDS011;73535;52.500;13.482;2024-03-02T13:28:04;7.80;;;6.95;;
83562;SDS011;73535;52.500;13.482;2024-03-02T13:32:55;7.20;;;5.93;;
83562;SDS011;73535;52.500;13.482;2024-03-02T13:37:45;7.03;;;6.07;;
83562;SDS011;73535;52.500;13.482;2024-03-02T13:42:41;7.00;;;5.75;;
83562;SDS011;73535;52.500;13.482;2024-03-02T13:45:06;7.25;;;6.15;;
83562;SDS011;73535;52.500;13.482;2024-03-02T13:47:31;7.22;;;6.18;;
83562;SDS011;73535;52.500;13.482;2024-03-02T13:49:57;7.25;;;5.75;;
83562;SDS011;73535;52.500;13.482;2024-03-02T13:54:48;6.47;;;5.73;;
83562;SDS011;73535;52.500;13.482;2024-03-02T13:59:38;7.22;;;6.28;;
83562;SDS011;73535;52.500;13.482;2024-03-02T14:02:05;7.40;;;6.60;;
83562;SDS011;73535;52.500;13.482;2024-03-02T14:04:31;7.20;;;5.78;;
83562;SDS011;73535;52.500;13.482;2024-03-02T14:06:58;6.65;;;5.53;;
83562;SDS011;73535;52.500;13.482;2024-03-02T14:09:23;7.38;;;6.03;;
83562;SDS011;73535;52.500;13.482;2024-03-02T14:14:14;6.43;;;5.25;;
83562;SDS011;73535;52.500;13.482;2024-03-02T14:19:05;6.70;;;5.80;;
83562;SDS011;73535;52.500;13.482;2024-03-02T14:23:56;6.77;;;5.70;;
83562;SDS011;73535;52.500;13.482;2024-03-02T14:28:46;7.03;;;5.63;;
83562;SDS011;73535;52.500;13.482;2024-03-02T14:33:36;7.47;;;5.53;;
83562;SDS011;73535;52.500;13.482;2024-03-02T14:38:29;6.68;;;5.97;;
83562;SDS011;73535;52.500;13.482;2024-03-02T14:40:54;6.70;;;5.65;;
83562;SDS011;73535;52.500;13.482;2024-03-02T14:45:44;7.17;;;5.40;;
83562;SDS011;73535;52.500;13.482;2024-03-02T14:50:35;8.10;;;5.63;;
83562;SDS011;73535;52.500;13.482;2024-03-02T14:55:26;6.35;;;5.32;;
83562;SDS011;73535;52.500;13.482;2024-03-02T15:00:17;6.37;;;5.40;;
83562;SDS011;73535;52.500;13.482;2024-03-02T15:05:07;5.63;;;4.63;;
83562;SDS011;73535;52.500;13.482;2024-03-02T15:09:58;6.37;;;4.93;;
83562;SDS011;73535;52.500;13.482;2024-03-02T15:12:23;5.68;;;4.90;;
83562;SDS011;73535;52.500;13.482;2024-03-02T15:14:48;6.22;;;5.05;;
83562;SDS011;73535;52.500;13.482;2024-03-02T15:19:43;5.25;;;4.60;;
83562;SDS011;73535;52.500;13.482;2024-03-02T15:22:09;5.75;;;4.82;;
83562;SDS011;73535;52.500;13.482;2024-03-02T15:24:34;5.22;;;4.72;;
83562;SDS011;73535;52.500;13.482;2024-03-02T15:29:24;5.47;;;4.97;;
83562;SDS011;73535;52.500;13.482;2024-03-02T15:31:54;6.20;;;4.85;;
83562;SDS011;73535;52.500;13.482;2024-03-02T15:34:19;5.32;;;4.57;;
83562;SDS011;73535;52.500;13.482;2024-03-02T15:39:10;4.90;;;3.97;;
83562;SDS011;73535;52.500;13.482;2024-03-02T15:44:00;5.57;;;4.80;;
83562;SDS011;73535;52.500;13.482;2024-03-02T15:48:51;5.13;;;4.60;;
83562;SDS011;73535;52.500;13.482;2024-03-02T15:51:16;6.43;;;4.40;;
83562;SDS011;73535;52.500;13.482;2024-03-02T15:56:07;4.70;;;4.20;;
83562;SDS011;73535;52.500;13.482;2024-03-02T15:58:32;5.15;;;4.10;;
83562;SDS011;73535;52.500;13.482;2024-03-02T16:00:59;5.20;;;4.68;;
83562;SDS011;73535;52.500;13.482;2024-03-02T16:03:24;7.18;;;4.90;;
83562;SDS011;73535;52.500;13.482;2024-03-02T16:05:50;5.03;;;4.53;;
83562;SDS011;73535;52.500;13.482;2024-03-02T16:08:15;4.85;;;4.20;;
83562;SDS011;73535;52.500;13.482;2024-03-02T16:13:05;5.87;;;4.20;;
83562;SDS011;73535;52.500;13.482;2024-03-02T16:17:56;5.33;;;4.60;;
83562;SDS011;73535;52.500;13.482;2024-03-02T16:20:23;5.45;;;4.10;;
83562;SDS011;73535;52.500;13.482;2024-03-02T16:22:48;5.30;;;4.30;;
83562;SDS011;73535;52.500;13.482;2024-03-02T16:25:13;5.22;;;4.72;;
83562;SDS011;73535;52.500;13.482;2024-03-02T16:27:39;6.35;;;4.55;;
83562;SDS011;73535;52.500;13.482;2024-03-02T16:30:05;6.57;;;4.55;;
83562;SDS011;73535;52.500;13.482;2024-03-02T16:34:56;4.87;;;4.17;;
83562;SDS011;73535;52.500;13.482;2024-03-02T16:39:48;5.93;;;4.50;;
83562;SDS011;73535;52.500;13.482;2024-03-02T16:42:13;4.97;;;4.47;;
83562;SDS011;73535;52.500;13.482;2024-03-02T16:44:39;6.40;;;4.80;;